createdAt,value
2022-10-26T00:00:31.057Z,11.56
2022-10-26T00:01:33.031Z,9.70
2022-10-26T00:02:35.029Z,12.20
2022-10-26T00:03:38.176Z,11.50
2022-10-26T00:04:40.501Z,9.45
2022-10-26T00:05:43.099Z,8.40
2022-10-26T00:06:45.369Z,9.27
2022-10-26T00:07:47.755Z,9.56
2022-10-26T00:08:50.135Z,10.60
2022-10-26T00:09:51.908Z,6.70
2022-10-26T00:10:56.742Z,11.22
2022-10-26T00:11:58.997Z,11.10
2022-10-26T00:13:01.823Z,10.80
2022-10-26T00:14:04.716Z,11.27
2022-10-26T00:15:07.683Z,12.40
2022-10-26T00:16:16.395Z,11.80
2022-10-26T00:17:18.239Z,10.80
2022-10-26T00:18:20.542Z,12.89
2022-10-26T00:19:22.541Z,11.70
2022-10-26T00:20:24.560Z,12.10
2022-10-26T00:21:27.104Z,12.22
2022-10-26T00:22:29.076Z,14.30
2022-10-26T00:23:31.642Z,13.90
2022-10-26T00:24:33.567Z,10.30
2022-10-26T00:25:35.428Z,15.56
2022-10-26T00:26:38.166Z,18.11
2022-10-26T00:27:41.390Z,14.20
2022-10-26T00:28:43.328Z,19.60
2022-10-26T00:29:46.217Z,19.56
2022-10-26T00:30:48.333Z,19.20
2022-10-26T00:31:50.465Z,19.00
2022-10-26T00:32:52.563Z,22.30
2022-10-26T00:33:55.579Z,21.70
2022-10-26T00:35:06.061Z,18.82
2022-10-26T00:36:01.635Z,18.90
2022-10-26T00:37:03.534Z,16.30
2022-10-26T00:38:05.915Z,20.00
2022-10-26T00:39:11.348Z,16.20
2022-10-26T00:40:14.150Z,19.50
2022-10-26T00:41:18.664Z,16.70
2022-10-26T00:42:22.159Z,20.50
2022-10-26T00:43:30.426Z,20.50
2022-10-26T00:44:51.247Z,19.30
2022-10-26T00:45:56.557Z,17.50
2022-10-26T00:46:58.623Z,22.50
2022-10-26T00:48:06.933Z,19.70
2022-10-26T00:50:25.681Z,26.30
2022-10-26T00:51:36.890Z,20.00
2022-10-26T00:52:39.339Z,21.80
2022-10-26T00:53:42.046Z,18.90
2022-10-26T00:54:44.542Z,19.20
2022-10-26T00:55:50.471Z,18.60
2022-10-26T00:56:54.507Z,22.50
2022-10-26T00:57:57.471Z,18.60
2022-10-26T00:59:03.098Z,26.50
2022-10-26T01:00:07.337Z,28.00
2022-10-26T01:01:09.622Z,24.00
2022-10-26T01:02:12.801Z,22.70
2022-10-26T01:03:16.423Z,21.73
2022-10-26T01:04:19.340Z,20.10
2022-10-26T01:05:22.708Z,22.80
2022-10-26T01:06:25.158Z,22.50
2022-10-26T01:07:27.372Z,21.90
2022-10-26T01:08:29.824Z,17.50
2022-10-26T01:09:33.337Z,25.70
2022-10-26T01:10:38.197Z,22.20
2022-10-26T01:11:40.135Z,27.70
2022-10-26T01:12:42.781Z,28.89
2022-10-26T01:13:47.222Z,29.20
2022-10-26T01:14:50.620Z,29.00
2022-10-26T01:16:20.525Z,33.00
2022-10-26T01:17:29.072Z,24.60
2022-10-26T01:18:34.647Z,16.90
2022-10-26T01:20:15.414Z,28.40
2022-10-26T01:21:23.784Z,29.00
2022-10-26T01:22:45.738Z,16.00
2022-10-26T01:24:06.175Z,24.70
2022-10-26T01:25:11.738Z,23.20
2022-10-26T01:26:36.265Z,23.90
2022-10-26T01:27:40.649Z,22.10
2022-10-26T01:29:10.169Z,19.30
2022-10-26T01:30:25.713Z,22.00
2022-10-26T01:31:31.184Z,24.60
2022-10-26T01:32:57.393Z,14.90
2022-10-26T01:34:14.765Z,18.10
2022-10-26T01:35:29.530Z,21.50
2022-10-26T01:36:44.216Z,21.80
2022-10-26T01:38:04.680Z,20.50
2022-10-26T01:39:10.279Z,21.00
2022-10-26T01:40:21.877Z,18.70
2022-10-26T01:42:48.130Z,22.10
2022-10-26T01:43:54.156Z,21.90
2022-10-26T01:45:02.475Z,11.80
2022-10-26T01:46:07.261Z,20.80
2022-10-26T01:47:12.809Z,17.60
2022-10-26T01:48:18.887Z,20.00
2022-10-26T01:49:27.538Z,20.10
2022-10-26T01:50:31.496Z,16.50
2022-10-26T01:51:34.979Z,24.10
2022-10-26T01:52:36.935Z,14.70
2022-10-26T01:53:48.908Z,15.40
2022-10-26T01:54:50.845Z,12.50
2022-10-26T01:55:54.520Z,18.67
2022-10-26T01:57:00.211Z,11.00
2022-10-26T01:58:05.709Z,14.70
2022-10-26T01:59:11.245Z,16.50
2022-10-26T02:00:14.183Z,21.20
2022-10-26T02:01:38.036Z,18.91
2022-10-26T02:03:00.769Z,20.50
2022-10-26T02:04:21.098Z,14.50
2022-10-26T02:05:44.965Z,18.20
2022-10-26T02:07:12.064Z,21.30
2022-10-26T02:08:17.680Z,18.50
2022-10-26T02:09:44.464Z,21.00
2022-10-26T02:10:56.705Z,20.90
2022-10-26T02:12:02.331Z,23.00
2022-10-26T02:13:20.262Z,18.60
2022-10-26T02:14:37.899Z,19.90
2022-10-26T02:15:55.619Z,20.90
2022-10-26T02:17:04.309Z,18.50
2022-10-26T02:19:35.394Z,25.00
2022-10-26T02:20:41.004Z,28.00
2022-10-26T02:21:49.306Z,22.10
2022-10-26T02:22:54.255Z,20.10
2022-10-26T02:23:58.834Z,23.60
2022-10-26T02:25:04.521Z,18.40
2022-10-26T02:26:10.315Z,17.10
2022-10-26T02:27:16.586Z,22.10
2022-10-26T02:28:22.226Z,19.60
2022-10-26T02:29:28.248Z,23.40
2022-10-26T02:30:34.031Z,20.50
2022-10-26T02:31:38.235Z,22.30
2022-10-26T02:32:43.750Z,22.80
2022-10-26T02:34:55.142Z,20.00
2022-10-26T02:36:00.439Z,17.60
2022-10-26T02:37:04.892Z,19.90
2022-10-26T02:38:13.009Z,21.20
2022-10-26T02:39:18.639Z,23.60
2022-10-26T02:40:24.357Z,14.10
2022-10-26T02:41:29.685Z,25.10
2022-10-26T02:42:32.829Z,20.50
2022-10-26T02:43:38.356Z,24.90
2022-10-26T02:44:51.232Z,18.90
2022-10-26T02:45:59.349Z,17.10
2022-10-26T02:47:02.215Z,17.30
2022-10-26T02:48:05.612Z,23.18
2022-10-26T02:49:08.015Z,19.90
2022-10-26T02:50:11.202Z,21.70
2022-10-26T02:51:19.538Z,16.00
2022-10-26T02:52:31.179Z,16.10
2022-10-26T02:54:03.375Z,18.80
2022-10-26T02:55:18.511Z,21.80
2022-10-26T02:56:27.286Z,20.50
2022-10-26T02:57:34.112Z,16.90
2022-10-26T02:58:39.770Z,19.20
2022-10-26T02:59:45.057Z,18.90
2022-10-26T03:00:47.710Z,18.30
2022-10-26T03:01:51.561Z,13.70
2022-10-26T03:02:57.229Z,20.20
2022-10-26T03:04:00.072Z,22.50
2022-10-26T03:05:28.174Z,20.90
2022-10-26T03:06:30.936Z,25.30
2022-10-26T03:07:33.048Z,18.91
2022-10-26T03:08:35.049Z,17.00
2022-10-26T03:09:37.246Z,20.10
2022-10-26T03:10:44.890Z,18.40
2022-10-26T03:11:47.190Z,19.20
2022-10-26T03:12:49.367Z,21.60
2022-10-26T03:13:51.430Z,23.20
2022-10-26T03:14:53.298Z,18.56
2022-10-26T03:15:55.965Z,16.56
2022-10-26T03:16:58.190Z,18.00
2022-10-26T03:18:00.627Z,19.00
2022-10-26T03:19:02.450Z,11.40
2022-10-26T03:20:05.587Z,21.30
2022-10-26T03:21:07.492Z,18.00
2022-10-26T03:22:09.294Z,17.00
2022-10-26T03:23:11.086Z,15.78
2022-10-26T03:24:13.015Z,22.11
2022-10-26T03:25:14.795Z,16.78
2022-10-26T03:26:16.799Z,20.60
2022-10-26T03:27:20.673Z,17.89
2022-10-26T03:28:22.663Z,13.90
2022-10-26T03:29:24.438Z,16.22
2022-10-26T03:30:27.057Z,20.56
2022-10-26T03:31:28.763Z,16.40
2022-10-26T03:32:30.595Z,17.56
2022-10-26T03:33:34.549Z,18.44
2022-10-26T03:34:36.382Z,14.30
2022-10-26T03:35:38.127Z,15.89
2022-10-26T03:36:39.896Z,18.56
2022-10-26T03:37:41.563Z,20.44
2022-10-26T03:38:43.348Z,16.33
2022-10-26T03:39:45.118Z,19.56
2022-10-26T03:40:46.963Z,17.78
2022-10-26T03:41:48.768Z,17.67
2022-10-26T03:42:51.795Z,15.78
2022-10-26T03:43:55.308Z,14.20
2022-10-26T03:44:57.070Z,11.00
2022-10-26T03:45:59.943Z,16.78
2022-10-26T03:47:01.767Z,17.40
2022-10-26T03:48:04.285Z,18.78
2022-10-26T03:49:09.377Z,19.50
2022-10-26T03:50:13.953Z,20.90
2022-10-26T03:51:15.886Z,22.00
2022-10-26T03:52:17.669Z,15.44
2022-10-26T03:53:19.289Z,15.56
2022-10-26T03:54:21.027Z,15.89
2022-10-26T03:55:22.663Z,16.00
2022-10-26T03:56:24.814Z,17.44
2022-10-26T03:57:26.516Z,17.60
2022-10-26T03:58:28.167Z,18.33
2022-10-26T03:59:29.831Z,14.22
2022-10-26T04:00:31.770Z,14.89
2022-10-26T04:01:34.077Z,15.11
2022-10-26T04:02:36.468Z,13.30
2022-10-26T04:03:38.737Z,13.67
2022-10-26T04:04:41.063Z,17.30
2022-10-26T04:05:42.951Z,15.70
2022-10-26T04:07:58.014Z,15.33
2022-10-26T04:09:00.067Z,15.70
2022-10-26T04:10:03.165Z,14.40
2022-10-26T04:11:05.278Z,14.27
2022-10-26T04:12:07.316Z,11.60
2022-10-26T04:13:12.090Z,15.50
2022-10-26T04:14:14.095Z,12.10
2022-10-26T04:15:17.850Z,14.50
2022-10-26T04:16:20.869Z,15.70
2022-10-26T04:17:23.428Z,14.20
2022-10-26T04:18:25.252Z,13.00
2022-10-26T04:19:26.934Z,13.11
2022-10-26T04:20:30.897Z,13.67
2022-10-26T04:21:32.896Z,12.30
2022-10-26T04:22:35.285Z,15.40
2022-10-26T04:23:37.213Z,13.20
2022-10-26T04:24:38.850Z,13.11
2022-10-26T04:25:42.062Z,12.78
2022-10-26T04:26:44.218Z,15.20
2022-10-26T04:27:45.997Z,12.33
2022-10-26T04:28:48.018Z,14.30
2022-10-26T04:29:49.692Z,15.11
2022-10-26T04:30:51.787Z,10.00
2022-10-26T04:31:53.766Z,14.33
2022-10-26T04:32:55.798Z,16.40
2022-10-26T04:33:57.733Z,15.11
2022-10-26T04:34:59.397Z,18.78
2022-10-26T04:36:01.661Z,15.22
2022-10-26T04:37:03.620Z,13.80
2022-10-26T04:38:06.793Z,10.00
2022-10-26T04:39:08.748Z,14.30
2022-10-26T04:40:11.711Z,14.30
2022-10-26T04:41:13.603Z,15.50
2022-10-26T04:42:15.274Z,15.56
2022-10-26T04:43:17.041Z,14.22
2022-10-26T04:44:18.689Z,15.56
2022-10-26T04:45:21.635Z,7.56
2022-10-26T04:46:23.675Z,13.60
2022-10-26T04:47:26.397Z,13.36
2022-10-26T04:48:28.186Z,14.89
2022-10-26T04:49:30.015Z,17.67
2022-10-26T04:50:32.798Z,15.56
2022-10-26T04:51:35.289Z,19.00
2022-10-26T04:52:37.626Z,12.30
2022-10-26T04:53:39.879Z,10.70
2022-10-26T04:54:41.600Z,19.60
2022-10-26T04:55:43.387Z,12.22
2022-10-26T04:57:47.828Z,16.70
2022-10-26T04:58:54.338Z,16.40
2022-10-26T04:59:56.194Z,16.30
2022-10-26T05:00:58.192Z,16.56
2022-10-26T05:02:00.222Z,16.40
2022-10-26T05:03:04.090Z,15.10
2022-10-26T05:04:06.092Z,15.40
2022-10-26T05:05:11.257Z,16.10
2022-10-26T05:06:13.715Z,18.20
2022-10-26T05:07:15.586Z,14.00
2022-10-26T05:08:17.340Z,11.00
2022-10-26T05:09:19.114Z,10.89
2022-10-26T05:10:21.648Z,16.50
2022-10-26T05:11:23.449Z,13.30
2022-10-26T05:12:25.269Z,18.33
2022-10-26T05:14:28.538Z,11.33
2022-10-26T05:15:31.541Z,17.78
2022-10-26T05:16:33.540Z,16.50
2022-10-26T05:17:35.833Z,11.00
2022-10-26T05:18:37.987Z,16.00
2022-10-26T05:19:39.794Z,15.90
2022-10-26T05:20:41.675Z,15.11
2022-10-26T05:22:52.658Z,16.00
2022-10-26T05:23:54.509Z,12.70
2022-10-26T05:24:56.251Z,13.89
2022-10-26T05:25:58.028Z,15.44
2022-10-26T05:27:00.354Z,11.44
2022-10-26T05:28:05.005Z,17.90
2022-10-26T05:29:07.017Z,11.60
2022-10-26T05:30:11.045Z,5.60
2022-10-26T05:31:13.158Z,12.60
2022-10-26T05:32:14.883Z,12.80
2022-10-26T05:33:16.703Z,13.33
2022-10-26T05:34:18.569Z,15.44
2022-10-26T05:35:21.324Z,12.20
2022-10-26T05:36:23.337Z,13.40
2022-10-26T05:37:30.905Z,10.33
2022-10-26T05:38:32.721Z,16.00
2022-10-26T05:39:34.438Z,12.33
2022-10-26T05:40:36.600Z,8.89
2022-10-26T05:41:38.294Z,12.50
2022-10-26T05:42:40.660Z,12.11
2022-10-26T05:43:42.352Z,14.10
2022-10-26T05:44:44.966Z,9.78
2022-10-26T05:45:48.933Z,12.40
2022-10-26T05:46:50.794Z,15.50
2022-10-26T05:47:56.145Z,16.22
2022-10-26T05:48:57.314Z,13.40
2022-10-26T05:49:59.203Z,12.10
2022-10-26T05:51:01.261Z,14.00
2022-10-26T05:52:03.624Z,12.30
2022-10-26T05:53:06.127Z,14.90
2022-10-26T05:54:11.537Z,16.70
2022-10-26T05:55:17.148Z,13.80
2022-10-26T05:56:22.276Z,13.90
2022-10-26T05:57:25.018Z,14.30
2022-10-26T05:58:29.369Z,14.70
2022-10-26T05:59:32.286Z,13.80
2022-10-26T06:00:35.258Z,12.82
2022-10-26T06:01:55.632Z,15.18
2022-10-26T06:03:19.076Z,14.30
2022-10-26T06:04:40.184Z,11.50
2022-10-26T06:05:56.712Z,10.10
2022-10-26T06:06:58.972Z,17.50
2022-10-26T06:08:01.542Z,17.00
2022-10-26T06:09:04.091Z,12.10
2022-10-26T06:10:09.151Z,18.80
2022-10-26T06:11:11.857Z,13.00
2022-10-26T06:12:18.387Z,16.90
2022-10-26T06:13:20.532Z,13.00
2022-10-26T06:14:23.401Z,15.70
2022-10-26T06:15:25.833Z,11.50
2022-10-26T06:16:31.410Z,13.30
2022-10-26T06:17:52.417Z,11.50
2022-10-26T06:19:25.094Z,14.30
2022-10-26T06:20:36.745Z,7.10
2022-10-26T06:22:07.390Z,13.60
2022-10-26T06:23:31.492Z,10.50
2022-10-26T06:24:57.390Z,15.50
2022-10-26T06:26:03.195Z,7.00
2022-10-26T06:27:18.560Z,13.30
2022-10-26T06:28:22.649Z,12.00
2022-10-26T06:29:37.654Z,10.20
2022-10-26T06:30:41.578Z,12.60
2022-10-26T06:31:46.575Z,15.60
2022-10-26T06:32:57.367Z,11.30
2022-10-26T06:33:59.181Z,11.50
2022-10-26T06:36:25.991Z,17.60
2022-10-26T06:37:30.047Z,11.30
2022-10-26T06:38:34.386Z,14.30
2022-10-26T06:39:39.934Z,10.20
2022-10-26T06:40:44.892Z,12.90
2022-10-26T06:41:47.412Z,12.30
2022-10-26T06:42:50.238Z,10.70
2022-10-26T06:43:53.882Z,13.55
2022-10-26T06:44:56.452Z,12.10
2022-10-26T06:46:11.422Z,15.64
2022-10-26T06:47:26.722Z,12.10
2022-10-26T06:48:30.964Z,15.80
2022-10-26T06:49:36.459Z,11.10
2022-10-26T06:50:54.857Z,15.10
2022-10-26T06:52:06.378Z,13.40
2022-10-26T06:53:29.148Z,13.00
2022-10-26T06:54:40.939Z,12.60
2022-10-26T06:55:46.893Z,12.20
2022-10-26T06:56:50.839Z,12.50
2022-10-26T06:57:56.331Z,14.30
2022-10-26T06:59:04.762Z,9.80
2022-10-26T07:00:10.118Z,9.20
2022-10-26T07:01:12.474Z,11.10
2022-10-26T07:02:15.808Z,11.60
2022-10-26T07:03:17.627Z,10.80
2022-10-26T07:04:19.757Z,13.33
2022-10-26T07:05:21.662Z,13.50
2022-10-26T07:06:23.979Z,9.20
2022-10-26T07:07:30.813Z,13.10
2022-10-26T07:08:32.764Z,11.80
2022-10-26T07:09:34.550Z,8.30
2022-10-26T07:10:36.543Z,10.10
2022-10-26T07:11:38.257Z,12.44
2022-10-26T07:12:41.267Z,13.78
2022-10-26T07:13:44.111Z,13.55
2022-10-26T07:14:46.256Z,10.64
2022-10-26T07:15:48.094Z,9.80
2022-10-26T07:16:49.916Z,12.00
2022-10-26T07:17:51.996Z,11.00
2022-10-26T07:18:55.428Z,13.90
2022-10-26T07:19:57.606Z,9.00
2022-10-26T07:20:59.534Z,14.20
2022-10-26T07:22:03.129Z,15.78
2022-10-26T07:23:06.691Z,15.40
2022-10-26T07:24:09.145Z,10.20
2022-10-26T07:25:12.310Z,11.70
2022-10-26T07:26:14.960Z,12.20
2022-10-26T07:27:18.622Z,9.60
2022-10-26T07:28:20.423Z,8.20
2022-10-26T07:29:24.909Z,10.33
2022-10-26T07:30:28.912Z,11.00
2022-10-26T07:31:31.006Z,11.70
2022-10-26T07:32:32.862Z,12.50
2022-10-26T07:33:36.964Z,13.44
2022-10-26T07:34:38.694Z,10.20
2022-10-26T07:35:40.691Z,10.00
2022-10-26T07:36:44.916Z,10.50
2022-10-26T07:37:46.849Z,13.50
2022-10-26T07:38:53.781Z,13.11
2022-10-26T07:39:56.678Z,12.00
2022-10-26T07:40:58.766Z,14.10
2022-10-26T07:42:00.666Z,12.00
2022-10-26T07:43:02.939Z,13.89
2022-10-26T07:44:05.125Z,10.60
2022-10-26T07:45:08.430Z,10.80
2022-10-26T07:46:11.064Z,11.50
2022-10-26T07:47:13.165Z,9.10
2022-10-26T07:48:14.858Z,9.50
2022-10-26T07:49:19.510Z,11.56
2022-10-26T07:50:22.876Z,10.30
2022-10-26T07:51:24.799Z,10.00
2022-10-26T07:52:26.982Z,10.33
2022-10-26T07:53:29.142Z,11.50
2022-10-26T07:54:31.962Z,9.20
2022-10-26T07:55:33.674Z,12.00
2022-10-26T07:56:35.851Z,8.70
2022-10-26T07:57:38.041Z,10.00
2022-10-26T07:58:40.119Z,7.40
2022-10-26T07:59:42.870Z,6.11
2022-10-26T08:00:44.866Z,10.00
2022-10-26T08:01:47.526Z,6.00
2022-10-26T08:02:49.529Z,11.80
2022-10-26T08:03:55.333Z,7.78
2022-10-26T08:04:57.159Z,6.50
2022-10-26T08:05:59.984Z,10.33
2022-10-26T08:07:01.934Z,10.18
2022-10-26T08:08:04.196Z,9.11
2022-10-26T08:09:06.608Z,8.70
2022-10-26T08:10:10.514Z,8.73
2022-10-26T08:11:12.647Z,10.90
2022-10-26T08:12:15.035Z,9.20
2022-10-26T08:13:16.748Z,8.10
2022-10-26T08:14:19.053Z,7.00
2022-10-26T08:15:21.470Z,6.80
2022-10-26T08:16:23.908Z,7.45
2022-10-26T08:17:25.818Z,7.80
2022-10-26T08:18:28.771Z,8.67
2022-10-26T08:19:30.596Z,6.00
2022-10-26T08:20:33.020Z,9.40
2022-10-26T08:21:39.793Z,8.90
2022-10-26T08:22:38.930Z,9.70
2022-10-26T08:23:41.194Z,7.56
2022-10-26T08:24:44.105Z,6.10
2022-10-26T08:25:45.962Z,5.70
2022-10-26T08:26:48.371Z,11.30
2022-10-26T08:27:50.579Z,8.90
2022-10-26T08:28:53.106Z,6.00
2022-10-26T08:29:54.987Z,8.10
2022-10-26T08:30:57.118Z,9.22
2022-10-26T08:31:58.951Z,9.40
2022-10-26T08:33:02.955Z,9.00
2022-10-26T08:34:05.557Z,10.70
2022-10-26T08:35:09.148Z,12.30
2022-10-26T08:36:12.441Z,7.00
2022-10-26T08:37:14.748Z,10.60
2022-10-26T08:38:16.454Z,8.90
2022-10-26T08:39:18.377Z,8.44
2022-10-26T08:40:30.345Z,7.00
2022-10-26T08:41:45.095Z,7.40
2022-10-26T08:42:50.997Z,6.10
2022-10-26T08:43:57.707Z,7.80
2022-10-26T08:45:12.863Z,6.20
2022-10-26T08:46:31.966Z,8.20
2022-10-26T08:47:37.939Z,9.20
2022-10-26T08:48:43.453Z,7.40
2022-10-26T08:50:04.117Z,8.10
2022-10-26T08:51:09.931Z,9.20
2022-10-26T08:52:15.425Z,6.80
2022-10-26T08:53:23.867Z,8.60
2022-10-26T08:54:38.614Z,7.20
2022-10-26T08:55:50.334Z,5.10
2022-10-26T08:56:56.021Z,7.80
2022-10-26T08:58:00.552Z,9.50
2022-10-26T08:59:06.418Z,9.20
2022-10-26T09:00:21.306Z,9.70
2022-10-26T09:01:23.493Z,6.10
2022-10-26T09:02:26.731Z,7.70
2022-10-26T09:03:29.555Z,10.18
2022-10-26T09:04:32.042Z,9.30
2022-10-26T09:05:37.697Z,6.80
2022-10-26T09:06:58.449Z,5.30
2022-10-26T09:08:37.777Z,6.60
2022-10-26T09:09:53.062Z,7.90
2022-10-26T09:11:07.894Z,7.90
2022-10-26T09:12:16.392Z,8.60
2022-10-26T09:13:27.853Z,7.70
2022-10-26T09:15:05.408Z,6.60
2022-10-26T09:16:13.991Z,7.00
2022-10-26T09:17:36.113Z,5.00
2022-10-26T13:41:31.691Z,12.20
2022-10-26T13:42:40.262Z,11.00
2022-10-26T13:43:43.321Z,11.30
2022-10-26T13:44:52.149Z,12.50
2022-10-26T13:45:58.685Z,13.10
2022-10-26T13:47:10.892Z,12.10
2022-10-26T13:48:16.407Z,11.40
2022-10-26T13:49:21.935Z,10.70
2022-10-26T13:50:32.142Z,8.90
2022-10-26T13:51:48.036Z,11.60
2022-10-26T13:52:53.661Z,9.50
2022-10-26T13:53:59.668Z,8.80
2022-10-26T13:55:05.276Z,7.30
2022-10-26T13:56:24.422Z,10.10
2022-10-26T13:57:35.706Z,9.10
2022-10-26T13:58:44.189Z,8.60
2022-10-26T13:59:47.000Z,10.90
2022-10-26T14:02:18.310Z,11.00
2022-10-26T14:03:20.431Z,8.10
2022-10-26T14:04:27.288Z,10.60
2022-10-26T14:05:32.071Z,9.10
2022-10-26T14:06:39.059Z,11.90
2022-10-26T14:07:45.061Z,10.30
2022-10-26T14:08:50.004Z,13.70
2022-10-26T14:09:54.914Z,11.30
2022-10-26T14:10:58.758Z,10.10
2022-10-26T14:12:01.556Z,9.80
2022-10-26T14:13:16.131Z,10.55
2022-10-26T14:14:25.787Z,12.20
2022-10-26T14:15:31.351Z,14.00
2022-10-26T14:16:33.901Z,11.20
2022-10-26T14:17:35.895Z,11.90
2022-10-26T14:18:38.252Z,12.56
2022-10-26T14:19:41.304Z,7.40
2022-10-26T14:21:04.308Z,12.60
2022-10-26T14:22:07.189Z,12.40
2022-10-26T14:23:26.935Z,13.70
2022-10-26T14:24:46.855Z,9.50
2022-10-26T14:25:42.621Z,11.20
2022-10-26T14:26:45.978Z,13.30
2022-10-26T14:27:48.878Z,11.40
2022-10-26T14:28:55.225Z,9.50
2022-10-26T14:30:21.205Z,10.50
2022-10-26T14:31:25.622Z,10.00
2022-10-26T14:32:32.184Z,11.30
2022-10-26T14:33:40.617Z,11.40
2022-10-26T14:34:43.705Z,8.70
2022-10-26T14:35:47.203Z,11.90
2022-10-26T14:38:09.286Z,9.90
2022-10-26T14:39:18.384Z,6.90
2022-10-26T14:40:23.591Z,5.70
2022-10-26T14:41:26.752Z,10.30
2022-10-26T14:42:40.698Z,7.30
2022-10-26T14:43:44.441Z,7.50
2022-10-26T14:44:46.533Z,7.70
2022-10-26T14:45:51.184Z,9.80
2022-10-26T14:46:53.785Z,4.00
2022-10-26T14:47:56.601Z,7.50
2022-10-26T14:49:00.391Z,7.73
2022-10-26T14:50:03.901Z,10.20
2022-10-26T14:51:18.074Z,8.20
2022-10-26T14:52:24.109Z,8.30
2022-10-26T14:53:36.853Z,10.50
2022-10-26T14:54:41.052Z,5.50
2022-10-26T14:55:46.824Z,5.10
2022-10-26T14:56:50.832Z,7.40
2022-10-26T14:57:56.447Z,5.60
2022-10-26T14:58:58.902Z,9.00
2022-10-26T15:00:04.092Z,7.30
2022-10-26T15:01:25.292Z,9.70
2022-10-26T15:02:30.053Z,8.70
2022-10-26T15:03:33.361Z,8.40
2022-10-26T15:04:43.596Z,8.80
2022-10-26T15:05:47.088Z,9.20
2022-10-26T15:06:49.154Z,8.80
2022-10-26T15:07:52.854Z,7.30
2022-10-26T15:08:57.359Z,8.50
2022-10-26T15:09:59.768Z,10.50
2022-10-26T15:11:06.899Z,13.56
2022-10-26T15:12:21.647Z,9.10
2022-10-26T15:13:30.049Z,10.60
2022-10-26T15:14:33.826Z,7.00
2022-10-26T15:15:39.523Z,7.50
2022-10-26T15:16:41.953Z,13.80
2022-10-26T15:17:54.008Z,10.20
2022-10-26T15:19:11.053Z,8.60
2022-10-26T15:20:19.941Z,12.00
2022-10-26T15:21:31.591Z,11.70
2022-10-26T15:22:34.002Z,8.00
2022-10-26T15:23:39.210Z,11.70
2022-10-26T15:24:42.060Z,11.70
2022-10-26T15:26:02.046Z,9.80
2022-10-26T15:27:07.644Z,7.40
2022-10-26T15:28:13.147Z,9.70
2022-10-26T15:29:37.059Z,8.50
2022-10-26T15:30:39.643Z,12.60
2022-10-26T15:31:42.099Z,9.90
2022-10-26T15:32:46.749Z,11.70
2022-10-26T15:33:55.707Z,10.20
2022-10-26T15:35:16.072Z,9.20
2022-10-26T15:36:20.677Z,8.00
2022-10-26T15:37:22.583Z,12.20
2022-10-26T15:38:28.635Z,10.70
2022-10-26T15:39:29.748Z,14.00
2022-10-26T15:40:32.410Z,15.30
2022-10-26T15:41:42.997Z,11.70
2022-10-26T15:42:48.551Z,9.60
2022-10-26T15:43:52.526Z,9.70
2022-10-26T15:44:55.775Z,8.60
2022-10-26T15:45:58.306Z,12.70
2022-10-26T15:47:05.063Z,8.30
2022-10-26T15:48:13.158Z,12.50
2022-10-26T15:49:21.595Z,9.10
2022-10-26T15:50:26.507Z,8.10
2022-10-26T15:51:28.772Z,8.80
2022-10-26T15:52:31.342Z,6.80
2022-10-26T15:53:35.255Z,10.00
2022-10-26T15:54:37.454Z,8.80
2022-10-26T15:55:41.562Z,9.80
2022-10-26T15:56:45.881Z,7.80
2022-10-26T15:59:02.380Z,9.20
2022-10-26T16:00:07.493Z,9.10
2022-10-26T16:01:20.013Z,9.40
2022-10-26T16:02:22.646Z,9.60
2022-10-26T16:03:26.140Z,9.20
2022-10-26T16:04:29.764Z,6.30
2022-10-26T16:06:37.843Z,11.70
2022-10-26T16:07:56.852Z,7.40
2022-10-26T16:09:04.916Z,6.90
2022-10-26T16:10:11.055Z,7.70
2022-10-26T16:11:13.008Z,9.50
2022-10-26T16:12:17.106Z,10.20
2022-10-26T16:13:18.877Z,8.18
2022-10-26T16:14:20.512Z,7.89
2022-10-26T16:15:24.527Z,9.11
2022-10-26T16:16:26.547Z,8.40
2022-10-26T16:17:31.658Z,9.33
2022-10-26T16:18:36.720Z,10.80
2022-10-26T16:19:38.541Z,11.90
2022-10-26T16:20:43.955Z,10.40
2022-10-26T16:21:46.975Z,10.10
2022-10-26T16:22:50.929Z,8.40
2022-10-26T16:23:56.621Z,9.60
2022-10-26T16:24:58.625Z,9.90
2022-10-26T16:26:02.318Z,8.33
2022-10-26T16:27:05.029Z,10.10
2022-10-26T16:28:07.920Z,9.40
2022-10-26T16:29:09.891Z,10.60
2022-10-26T16:30:13.099Z,9.00
2022-10-26T16:31:20.080Z,8.64
2022-10-26T16:32:23.493Z,9.40
2022-10-26T16:33:26.035Z,11.36
2022-10-26T16:34:27.885Z,9.60
2022-10-26T16:35:39.263Z,7.89
2022-10-26T16:36:41.875Z,10.90
2022-10-26T16:37:45.037Z,10.60
2022-10-26T16:38:47.837Z,11.10
2022-10-26T16:39:55.810Z,10.00
2022-10-26T16:41:07.291Z,9.67
2022-10-26T16:42:09.288Z,9.90
2022-10-26T16:43:11.490Z,12.11
2022-10-26T16:44:15.395Z,11.20
2022-10-26T16:45:20.654Z,10.80
2022-10-26T16:46:24.133Z,5.40
2022-10-26T16:47:26.842Z,8.90
2022-10-26T16:48:29.149Z,9.64
2022-10-26T16:49:31.143Z,10.70
2022-10-26T16:50:36.298Z,11.80
2022-10-26T16:51:37.430Z,9.70
2022-10-26T16:52:53.492Z,8.70
2022-10-26T16:53:58.963Z,9.30
2022-10-26T16:55:02.274Z,12.22
2022-10-26T16:56:11.192Z,6.00
2022-10-26T16:57:15.742Z,10.20
2022-10-26T16:58:18.144Z,10.20
2022-10-26T16:59:19.942Z,7.80
2022-10-26T17:00:22.766Z,7.11
2022-10-26T17:01:25.003Z,9.45
2022-10-26T17:02:27.142Z,7.50
2022-10-26T17:03:30.283Z,11.10
2022-10-26T17:04:32.336Z,10.90
2022-10-26T17:05:34.057Z,10.60
2022-10-26T17:06:36.276Z,8.22
2022-10-26T17:07:38.149Z,9.30
2022-10-26T17:08:41.455Z,8.20
2022-10-26T17:09:43.412Z,9.70
2022-10-26T17:10:45.822Z,10.50
2022-10-26T17:11:47.996Z,6.50
2022-10-26T17:12:50.202Z,6.70
2022-10-26T17:13:54.569Z,11.10
2022-10-26T17:14:56.400Z,10.20
2022-10-26T17:16:07.177Z,8.44
2022-10-26T17:17:09.578Z,8.80
2022-10-26T17:18:11.683Z,6.70
2022-10-26T17:19:13.940Z,7.40
2022-10-26T17:20:16.452Z,11.60
2022-10-26T17:21:21.675Z,11.10
2022-10-26T17:22:24.289Z,12.20
2022-10-26T17:23:27.443Z,12.70
2022-10-26T17:24:29.762Z,12.30
2022-10-26T17:25:35.604Z,10.50
2022-10-26T17:26:37.770Z,10.50
2022-10-26T17:27:44.790Z,10.50
2022-10-26T17:28:44.288Z,9.60
2022-10-26T17:29:51.248Z,6.80
2022-10-26T17:31:08.502Z,9.60
2022-10-26T17:32:23.586Z,11.50
2022-10-26T17:33:36.369Z,11.50
2022-10-26T17:34:49.457Z,8.60
2022-10-26T17:35:57.049Z,9.50
2022-10-26T17:37:03.541Z,10.40
2022-10-26T17:38:05.897Z,11.40
2022-10-26T17:39:08.809Z,8.40
2022-10-26T17:40:13.895Z,9.20
2022-10-26T17:41:24.271Z,6.70
2022-10-26T17:42:28.766Z,8.30
2022-10-26T17:43:37.404Z,9.60
2022-10-26T17:44:40.055Z,7.50
2022-10-26T17:45:48.407Z,5.90
2022-10-26T17:47:00.740Z,6.90
2022-10-26T17:47:59.122Z,6.80
2022-10-26T17:49:01.600Z,6.60
2022-10-26T17:50:04.281Z,9.90
2022-10-26T17:52:20.064Z,9.40
2022-10-26T17:53:22.081Z,6.70
2022-10-26T17:54:23.722Z,6.11
2022-10-26T17:55:25.566Z,7.89
2022-10-26T17:56:29.616Z,7.33
2022-10-26T17:57:31.796Z,10.60
2022-10-26T17:58:35.117Z,8.60
2022-10-26T17:59:37.684Z,8.80
2022-10-26T18:00:41.156Z,5.40
2022-10-26T18:01:43.189Z,7.70
2022-10-26T18:02:47.304Z,8.50
2022-10-26T18:03:50.652Z,4.60
2022-10-26T18:04:53.715Z,4.60
2022-10-26T18:05:57.991Z,8.40
2022-10-26T18:07:00.888Z,5.20
2022-10-26T18:08:02.724Z,5.10
2022-10-26T18:09:10.399Z,9.44
2022-10-26T18:10:33.303Z,8.70
2022-10-26T18:11:26.102Z,7.10
2022-10-26T18:12:26.159Z,8.40
2022-10-26T18:13:30.653Z,7.80
2022-10-26T18:14:34.183Z,8.40
2022-10-26T18:15:36.124Z,5.00
2022-10-26T18:16:38.961Z,7.00
2022-10-26T18:17:42.038Z,9.91
2022-10-26T18:18:46.098Z,7.20
2022-10-26T18:19:49.172Z,6.30
2022-10-26T18:20:51.415Z,8.60
2022-10-26T18:21:54.162Z,9.78
2022-10-26T18:22:56.881Z,12.18
2022-10-26T18:24:00.077Z,9.00
2022-10-26T18:25:06.014Z,7.60
2022-10-26T18:26:22.044Z,7.30
2022-10-26T18:27:24.009Z,9.80
2022-10-26T18:28:26.187Z,8.33
2022-10-26T18:29:27.955Z,8.30
2022-10-26T18:30:30.946Z,9.80
2022-10-26T18:31:35.740Z,8.36
2022-10-26T18:32:37.642Z,10.20
2022-10-26T18:33:40.511Z,8.22
2022-10-26T18:34:43.148Z,7.10
2022-10-26T18:35:44.965Z,9.00
2022-10-26T18:36:46.906Z,8.60
2022-10-26T18:37:49.064Z,6.78
2022-10-26T18:38:51.373Z,7.30
2022-10-26T18:39:53.211Z,7.60
2022-10-26T18:40:56.297Z,6.00
2022-10-26T18:41:58.385Z,6.18
2022-10-26T18:43:00.293Z,6.80
2022-10-26T18:44:05.013Z,6.80
2022-10-26T18:45:07.426Z,6.80
2022-10-26T18:46:16.244Z,7.27
2022-10-26T18:47:17.735Z,7.10
2022-10-26T18:48:20.834Z,8.36
2022-10-26T18:49:22.899Z,8.60
2022-10-26T18:50:24.877Z,7.10
2022-10-26T18:51:29.693Z,8.56